createdAt,value
2022-10-03T00:00:10.609Z,9.66
2022-10-03T00:03:10.696Z,9.63
2022-10-03T00:05:53.527Z,9.60
2022-10-03T00:08:38.194Z,9.59
2022-10-03T00:11:17.823Z,9.60
2022-10-03T00:13:56.417Z,9.60
2022-10-03T00:16:32.533Z,9.62
2022-10-03T00:19:09.220Z,9.65
2022-10-03T00:21:47.742Z,9.67
2022-10-03T00:24:29.654Z,9.68
2022-10-03T00:27:04.243Z,9.74
2022-10-03T00:29:47.963Z,9.77
2022-10-03T00:32:31.757Z,9.79
2022-10-03T00:35:13.282Z,9.81
2022-10-03T00:37:48.073Z,9.81
2022-10-03T00:40:46.505Z,9.77
2022-10-03T00:43:57.828Z,9.72
2022-10-03T00:47:00.817Z,9.70
2022-10-03T00:49:59.556Z,9.66
2022-10-03T00:52:49.806Z,9.64
2022-10-03T00:55:30.047Z,9.59
2022-10-03T00:58:12.178Z,9.55
2022-10-03T01:00:45.581Z,9.54
2022-10-03T01:03:26.825Z,9.53
2022-10-03T01:06:20.314Z,9.51
2022-10-03T01:09:14.252Z,9.50
2022-10-03T01:12:02.562Z,9.53
2022-10-03T01:14:53.046Z,9.54
2022-10-03T01:17:31.658Z,9.54
2022-10-03T01:20:12.885Z,9.52
2022-10-03T01:23:03.522Z,9.50
2022-10-03T01:25:40.505Z,9.44
2022-10-03T01:28:46.542Z,9.45
2022-10-03T01:31:20.433Z,9.38
2022-10-03T01:33:56.177Z,9.35
2022-10-03T01:36:33.731Z,9.37
2022-10-03T01:39:06.871Z,9.35
2022-10-03T01:41:43.144Z,9.41
2022-10-03T01:44:23.608Z,9.38
2022-10-03T01:46:55.997Z,9.39
2022-10-03T01:49:30.481Z,9.38
2022-10-03T01:52:04.544Z,9.35
2022-10-03T01:54:41.778Z,9.32
2022-10-03T01:57:19.606Z,9.36
2022-10-03T01:59:56.164Z,9.38
2022-10-03T02:02:31.813Z,9.36
2022-10-03T02:05:07.164Z,9.32
2022-10-03T02:07:43.535Z,9.29
2022-10-03T02:10:24.606Z,9.26
2022-10-03T02:13:03.109Z,9.27
2022-10-03T02:15:42.995Z,9.24
2022-10-03T02:18:17.062Z,9.19
2022-10-03T02:20:50.114Z,9.19
2022-10-03T02:23:41.002Z,9.16
2022-10-03T02:26:34.245Z,9.12
2022-10-03T02:29:24.629Z,9.11
2022-10-03T02:32:16.471Z,9.12
2022-10-03T02:35:26.212Z,9.08
2022-10-03T02:38:10.001Z,9.04
2022-10-03T02:41:13.681Z,9.02
2022-10-03T02:44:02.612Z,8.95
2022-10-03T02:47:08.294Z,8.92
2022-10-03T02:50:27.715Z,8.88
2022-10-03T02:53:33.247Z,8.84
2022-10-03T02:56:37.979Z,8.81
2022-10-03T02:59:34.176Z,8.78
2022-10-03T03:02:17.886Z,8.81
2022-10-03T03:05:16.413Z,8.79
2022-10-03T03:08:04.960Z,8.77
2022-10-03T03:11:00.505Z,8.76
2022-10-03T03:14:07.136Z,8.72
2022-10-03T03:16:45.248Z,8.69
2022-10-03T03:19:29.747Z,8.69
2022-10-03T03:22:11.175Z,8.68
2022-10-03T03:24:52.750Z,8.66
2022-10-03T03:27:37.817Z,8.65
2022-10-03T03:30:11.158Z,8.64
2022-10-03T03:32:48.771Z,8.61
2022-10-03T03:35:27.053Z,8.59
2022-10-03T03:38:06.461Z,8.55
2022-10-03T03:40:46.129Z,8.56
2022-10-03T03:43:34.347Z,8.57
2022-10-03T03:46:14.586Z,8.49
2022-10-03T03:49:02.036Z,8.46
2022-10-03T03:51:40.653Z,8.43
2022-10-03T03:54:42.505Z,8.41
2022-10-03T03:57:39.037Z,8.34
2022-10-03T04:00:16.738Z,8.29
2022-10-03T04:03:03.825Z,8.29
2022-10-03T04:05:50.928Z,8.28
2022-10-03T04:08:36.983Z,8.25
2022-10-03T04:11:22.381Z,8.24
2022-10-03T04:14:15.119Z,8.21
2022-10-03T04:17:11.317Z,8.22
2022-10-03T04:19:55.640Z,8.21
2022-10-03T04:22:38.963Z,8.22
2022-10-03T04:25:20.753Z,8.19
2022-10-03T04:28:18.146Z,8.16
2022-10-03T04:30:56.315Z,8.15
2022-10-03T04:33:36.041Z,8.11
2022-10-03T04:36:34.450Z,8.13
2022-10-03T04:39:10.270Z,8.14
2022-10-03T04:41:46.364Z,8.14
2022-10-03T04:44:30.982Z,7.61
2022-10-03T04:47:03.945Z,8.14
2022-10-03T04:49:40.112Z,8.11
2022-10-03T04:52:19.299Z,8.11
2022-10-03T04:54:57.344Z,8.11
2022-10-03T04:57:32.117Z,8.11
2022-10-03T05:00:15.047Z,8.13
2022-10-03T05:02:51.325Z,8.11
2022-10-03T05:05:37.051Z,8.13
2022-10-03T05:08:19.647Z,8.14
2022-10-03T05:11:08.122Z,7.97
2022-10-03T05:13:48.022Z,8.11
2022-10-03T05:16:33.694Z,8.12
2022-10-03T05:19:28.794Z,8.16
2022-10-03T05:22:03.485Z,8.13
2022-10-03T05:24:39.760Z,8.10
2022-10-03T05:27:20.932Z,8.10
2022-10-03T05:29:58.551Z,8.12
2022-10-03T05:32:36.954Z,8.12
2022-10-03T05:35:26.000Z,8.13
2022-10-03T05:38:34.207Z,8.15
2022-10-03T05:41:05.353Z,8.15
2022-10-03T05:43:47.866Z,8.15
2022-10-03T05:46:31.286Z,8.16
2022-10-03T05:49:10.465Z,8.00
2022-10-03T05:52:15.858Z,8.26
2022-10-03T05:55:05.286Z,8.36
2022-10-03T05:57:53.053Z,8.44
2022-10-03T06:00:22.547Z,8.56
2022-10-03T06:03:16.752Z,8.50
2022-10-03T06:06:01.667Z,8.62
2022-10-03T06:08:51.261Z,8.67
2022-10-03T06:11:35.661Z,8.66
2022-10-03T06:14:33.452Z,8.76
2022-10-03T06:17:19.353Z,8.75
2022-10-03T06:19:52.287Z,8.84
2022-10-03T06:22:44.153Z,8.88
2022-10-03T06:25:40.273Z,8.91
2022-10-03T06:28:56.026Z,8.93
2022-10-03T06:31:59.511Z,8.98
2022-10-03T06:35:15.682Z,9.01
2022-10-03T06:38:26.573Z,9.05
2022-10-03T06:41:30.210Z,9.11
2022-10-03T06:44:12.535Z,9.19
2022-10-03T06:47:02.293Z,9.29
2022-10-03T06:50:19.516Z,9.43
2022-10-03T06:53:20.760Z,9.57
2022-10-03T06:56:33.230Z,9.66
2022-10-03T06:59:25.942Z,9.72
2022-10-03T07:02:11.901Z,9.75
2022-10-03T07:05:19.493Z,9.80
2022-10-03T07:08:22.178Z,9.82
2022-10-03T07:11:05.816Z,9.87
2022-10-03T07:13:58.325Z,9.97
2022-10-03T07:17:14.723Z,10.03
2022-10-03T07:20:04.952Z,10.14
2022-10-03T07:23:22.193Z,10.12
2022-10-03T07:26:23.649Z,10.03
2022-10-03T07:29:09.656Z,10.01
2022-10-03T07:31:49.374Z,10.01
2022-10-03T07:34:52.807Z,10.08
2022-10-03T07:37:53.689Z,10.19
2022-10-03T07:40:37.902Z,10.32
2022-10-03T07:43:33.643Z,10.49
2022-10-03T07:46:26.361Z,10.64
2022-10-03T07:49:16.200Z,10.74
2022-10-03T07:52:00.701Z,10.83
2022-10-03T07:55:01.955Z,10.93
2022-10-03T07:57:48.205Z,11.04
2022-10-03T08:00:24.387Z,11.12
2022-10-03T08:03:39.923Z,11.27
2022-10-03T08:06:23.568Z,11.44
2022-10-03T08:09:07.480Z,11.54
2022-10-03T08:12:20.239Z,11.63
2022-10-03T08:14:58.891Z,11.73
2022-10-03T08:17:55.016Z,11.98
2022-10-03T08:20:44.677Z,12.24
2022-10-03T08:23:40.987Z,12.40
2022-10-03T08:26:18.277Z,12.40
2022-10-03T08:28:58.380Z,12.47
2022-10-03T08:32:15.225Z,12.62
2022-10-03T08:35:12.028Z,12.67
2022-10-03T08:38:16.507Z,12.76
2022-10-03T08:41:21.029Z,12.81
2022-10-03T08:44:30.453Z,12.88
2022-10-03T08:47:18.884Z,12.92
2022-10-03T08:50:41.045Z,12.90
2022-10-03T08:53:41.593Z,12.92
2022-10-03T08:56:16.227Z,12.93
2022-10-03T08:59:03.410Z,12.93
2022-10-03T09:02:09.916Z,13.00
2022-10-03T09:05:05.834Z,13.08
2022-10-03T09:08:15.376Z,13.11
2022-10-03T09:11:06.521Z,13.13
2022-10-03T09:14:25.778Z,13.18
2022-10-03T09:17:09.856Z,13.18
2022-10-03T09:20:10.480Z,13.19
2022-10-03T09:23:06.561Z,13.14
2022-10-03T09:25:57.192Z,13.12
2022-10-03T09:28:54.199Z,13.19
2022-10-03T09:32:02.227Z,13.27
2022-10-03T09:34:55.325Z,13.34
2022-10-03T09:37:58.302Z,13.47
2022-10-03T09:41:04.965Z,13.43
2022-10-03T09:44:02.107Z,13.52
2022-10-03T09:47:10.235Z,13.64
2022-10-03T09:50:19.552Z,13.77
2022-10-03T09:53:17.355Z,13.82
2022-10-03T09:56:10.988Z,13.86
2022-10-03T09:59:06.352Z,13.90
2022-10-03T10:01:41.324Z,14.02
2022-10-03T10:04:53.492Z,14.00
2022-10-03T10:07:46.847Z,13.96
2022-10-03T10:10:49.850Z,14.02
2022-10-03T10:14:11.269Z,14.15
2022-10-03T10:17:01.391Z,14.22
2022-10-03T10:19:59.713Z,14.38
2022-10-03T10:23:10.390Z,14.34
2022-10-03T10:26:19.114Z,14.11
2022-10-03T10:29:24.526Z,14.06
2022-10-03T10:32:34.266Z,14.07
2022-10-03T10:35:36.039Z,14.27
2022-10-03T10:38:35.344Z,14.40
2022-10-03T10:41:42.333Z,14.37
2022-10-03T10:47:52.736Z,14.62
2022-10-03T10:50:56.993Z,14.73
2022-10-03T10:54:09.320Z,14.61
2022-10-03T10:57:15.405Z,14.64
2022-10-03T11:00:18.610Z,14.64
2022-10-03T11:03:31.723Z,14.70
2022-10-03T11:06:42.834Z,14.63
2022-10-03T11:09:38.193Z,14.59
2022-10-03T11:12:50.061Z,14.56
2022-10-03T11:16:10.035Z,14.59
2022-10-03T11:19:19.479Z,14.62
2022-10-03T11:22:42.318Z,14.71
2022-10-03T11:25:37.279Z,14.67
2022-10-03T11:28:48.124Z,14.58
2022-10-03T11:31:58.965Z,14.50
2022-10-03T11:35:01.723Z,14.54
2022-10-03T11:37:42.043Z,14.73
2022-10-03T11:40:28.753Z,14.96
2022-10-03T11:43:15.001Z,14.99
2022-10-03T11:45:51.458Z,14.98
2022-10-03T11:48:35.886Z,14.97
2022-10-03T11:51:08.268Z,14.89
2022-10-03T11:54:00.069Z,14.91
2022-10-03T11:56:44.007Z,14.89
2022-10-03T11:59:34.098Z,14.73
2022-10-03T12:02:14.804Z,14.71
2022-10-03T12:04:55.388Z,14.70
2022-10-03T12:07:58.752Z,14.57
2022-10-03T12:10:39.437Z,14.48
2022-10-03T12:13:15.116Z,14.40
2022-10-03T12:15:47.851Z,14.39
2022-10-03T12:18:25.573Z,14.54
2022-10-03T12:21:12.293Z,14.54
2022-10-03T12:23:57.972Z,14.64
2022-10-03T12:26:38.448Z,14.61
2022-10-03T12:29:12.304Z,14.63
2022-10-03T12:31:46.540Z,14.73
2022-10-03T12:34:31.259Z,14.79
2022-10-03T12:37:15.968Z,14.75
2022-10-03T12:39:53.750Z,14.83
2022-10-03T12:42:29.513Z,14.99
2022-10-03T12:45:01.953Z,15.03
2022-10-03T12:47:55.293Z,14.92
2022-10-03T12:50:40.535Z,14.79
2022-10-03T12:53:31.187Z,14.76
2022-10-03T12:56:08.068Z,14.70
2022-10-03T12:58:56.831Z,14.62
2022-10-03T13:01:41.281Z,14.34
2022-10-03T13:04:23.709Z,14.32
2022-10-03T13:07:11.911Z,14.37
2022-10-03T13:09:58.177Z,14.41
2022-10-03T13:12:36.798Z,14.45
2022-10-03T13:15:34.542Z,14.49
2022-10-03T13:18:14.070Z,14.47
2022-10-03T13:20:50.214Z,14.44
2022-10-03T13:23:24.582Z,14.36
2022-10-03T13:26:06.332Z,14.18
2022-10-03T13:28:55.092Z,14.25
2022-10-03T13:31:27.872Z,14.23
2022-10-03T13:34:01.900Z,14.25
2022-10-03T13:36:36.023Z,14.28
2022-10-03T13:39:15.575Z,14.36
2022-10-03T13:42:00.669Z,14.40
2022-10-03T13:44:38.222Z,14.37
2022-10-03T13:47:21.334Z,14.42
2022-10-03T13:49:54.937Z,14.46
2022-10-03T13:52:33.346Z,14.48
2022-10-03T13:55:31.059Z,15.10
2022-10-03T13:58:21.536Z,15.23
2022-10-03T14:01:23.263Z,15.07
2022-10-03T14:04:15.777Z,14.86
2022-10-03T14:06:51.392Z,14.59
2022-10-03T14:09:44.307Z,14.63
2022-10-03T14:12:38.258Z,14.66
2022-10-03T14:15:23.868Z,14.48
2022-10-03T14:18:01.728Z,14.45
2022-10-03T14:20:36.934Z,14.47
2022-10-03T14:23:19.722Z,14.59
2022-10-03T14:25:56.225Z,14.49
2022-10-03T14:28:29.114Z,14.52
2022-10-03T14:31:08.152Z,14.46
2022-10-03T14:33:44.681Z,14.47
2022-10-03T14:36:31.120Z,14.46
2022-10-03T14:39:26.951Z,14.36
2022-10-03T14:42:19.353Z,14.32
2022-10-03T14:44:53.790Z,14.23
2022-10-03T14:47:23.876Z,14.28
2022-10-03T14:49:59.154Z,14.39
2022-10-03T14:52:34.957Z,14.44
2022-10-03T14:55:14.066Z,14.25
2022-10-03T14:58:09.295Z,14.32
2022-10-03T15:00:43.754Z,14.31
2022-10-03T15:03:33.582Z,14.23
2022-10-03T15:06:18.830Z,14.30
2022-10-03T15:08:49.773Z,14.22
2022-10-03T15:11:26.651Z,14.17
2022-10-03T15:13:58.125Z,14.16
2022-10-03T15:16:27.572Z,14.14
2022-10-03T15:19:03.807Z,14.09
2022-10-03T15:21:35.832Z,14.16
2022-10-03T15:24:07.998Z,14.12
2022-10-03T15:26:38.945Z,14.13
2022-10-03T15:29:08.769Z,14.09
2022-10-03T15:31:39.236Z,14.05
2022-10-03T15:34:18.143Z,13.96
2022-10-03T15:36:50.208Z,13.83
2022-10-03T15:39:22.695Z,13.76
2022-10-03T15:41:55.670Z,13.75
2022-10-03T15:44:33.601Z,13.77
2022-10-03T15:47:07.153Z,13.74
2022-10-03T15:49:40.043Z,13.79
2022-10-03T15:52:16.606Z,13.73
2022-10-03T15:54:49.543Z,13.78
2022-10-03T15:57:27.404Z,13.80
2022-10-03T16:00:03.036Z,13.75
2022-10-03T16:02:36.043Z,13.83
2022-10-03T16:05:07.833Z,13.80
2022-10-03T16:07:43.758Z,13.75
2022-10-03T16:10:21.866Z,13.70
2022-10-03T16:12:59.485Z,13.72
2022-10-03T16:15:39.824Z,13.71
2022-10-03T16:18:13.105Z,13.65
2022-10-03T16:20:45.073Z,13.59
2022-10-03T16:23:19.857Z,13.46
2022-10-03T16:25:51.217Z,13.40
2022-10-03T16:28:24.190Z,13.34
2022-10-03T16:30:56.686Z,13.30
2022-10-03T16:33:28.227Z,13.24
2022-10-03T16:35:59.520Z,13.18
2022-10-03T16:38:31.099Z,13.15
2022-10-03T16:41:02.120Z,13.11
2022-10-03T16:43:33.724Z,13.05
2022-10-03T16:46:06.010Z,12.99
2022-10-03T16:48:54.222Z,12.97
2022-10-03T16:51:25.322Z,12.87
2022-10-03T16:53:55.357Z,12.84
2022-10-03T16:56:27.194Z,12.83
2022-10-03T16:58:58.667Z,12.67
2022-10-03T17:01:32.874Z,12.70
2022-10-03T17:04:16.725Z,12.68
2022-10-03T17:06:48.207Z,12.62
2022-10-03T17:09:23.935Z,12.57
2022-10-03T17:11:55.906Z,12.54
2022-10-03T17:14:28.394Z,12.58
2022-10-03T17:17:03.409Z,12.55
2022-10-03T17:19:37.202Z,12.57
2022-10-03T17:22:17.150Z,12.58
2022-10-03T17:24:50.170Z,12.54
2022-10-03T17:27:29.459Z,12.53
2022-10-03T17:30:04.308Z,12.53
2022-10-03T17:32:38.567Z,12.48
2022-10-03T17:35:15.521Z,12.53
2022-10-03T17:38:44.684Z,12.46
2022-10-03T17:41:18.431Z,12.50
2022-10-03T17:43:51.252Z,12.45
2022-10-03T17:46:28.139Z,12.37
2022-10-03T17:49:06.377Z,12.30
2022-10-03T17:51:38.649Z,12.26
2022-10-03T17:54:12.851Z,12.21
2022-10-03T17:56:45.930Z,12.15
2022-10-03T17:59:18.837Z,12.17
2022-10-03T18:01:52.903Z,12.12
2022-10-03T18:04:28.996Z,12.04
2022-10-03T18:07:00.023Z,12.02
2022-10-03T18:09:32.586Z,11.95
2022-10-03T18:12:16.320Z,11.92
2022-10-03T18:15:25.950Z,11.86
2022-10-03T18:18:07.642Z,11.81
2022-10-03T18:20:44.010Z,11.80
2022-10-03T18:23:42.972Z,11.75
2022-10-03T18:26:20.463Z,11.74
2022-10-03T18:28:59.611Z,11.70
2022-10-03T18:31:31.056Z,11.67
2022-10-03T18:34:03.991Z,11.63
2022-10-03T18:36:36.994Z,11.58
2022-10-03T18:39:09.319Z,11.56
2022-10-03T18:41:45.617Z,11.54
2022-10-03T18:44:19.088Z,11.52
2022-10-03T18:46:52.680Z,11.46
2022-10-03T18:49:33.416Z,11.45
2022-10-03T18:52:10.589Z,11.45
2022-10-03T18:54:53.068Z,11.41
2022-10-03T18:57:24.657Z,11.36
2022-10-03T18:59:57.428Z,11.33
2022-10-03T19:02:31.891Z,11.30
2022-10-03T19:05:12.246Z,11.29
2022-10-03T19:07:47.627Z,11.26
2022-10-03T19:10:37.089Z,11.29
2022-10-03T19:13:16.116Z,11.25
2022-10-03T19:16:22.817Z,11.33
2022-10-03T19:19:03.154Z,11.32
2022-10-03T19:21:38.155Z,11.33
2022-10-03T19:24:12.315Z,11.30
2022-10-03T19:26:45.767Z,11.33
2022-10-03T19:29:19.273Z,11.30
2022-10-03T19:31:57.269Z,11.31
2022-10-03T19:34:32.889Z,11.29
2022-10-03T19:37:03.451Z,11.31
2022-10-03T19:39:34.036Z,11.32
2022-10-03T19:42:21.762Z,11.29
2022-10-03T19:44:50.252Z,11.27
2022-10-03T19:47:21.148Z,11.27
2022-10-03T19:49:56.585Z,11.29
2022-10-03T19:52:31.342Z,11.25
2022-10-03T19:55:11.030Z,11.23
2022-10-03T19:57:44.747Z,11.21
2022-10-03T20:00:28.907Z,11.17
2022-10-03T20:03:06.180Z,11.15
2022-10-03T20:05:42.272Z,11.14
2022-10-03T20:08:23.614Z,11.16
2022-10-03T20:11:04.597Z,11.10
2022-10-03T20:13:32.804Z,11.08
2022-10-03T20:16:01.547Z,11.08
2022-10-03T20:18:33.508Z,10.98
2022-10-03T20:21:02.898Z,11.01
2022-10-03T20:23:35.836Z,10.98
2022-10-03T20:26:10.248Z,10.93
2022-10-03T20:29:00.331Z,10.89
2022-10-03T20:31:31.893Z,10.88
2022-10-03T20:34:04.391Z,10.85
2022-10-03T20:36:37.712Z,10.83
2022-10-03T20:39:17.158Z,10.80
2022-10-03T20:41:58.128Z,10.75
2022-10-03T20:44:46.418Z,10.71
2022-10-03T20:47:23.225Z,10.69
2022-10-03T20:49:55.657Z,10.66
2022-10-03T20:52:25.609Z,10.62
2022-10-03T20:54:59.898Z,10.60
2022-10-03T20:57:32.339Z,10.59
2022-10-03T21:00:10.498Z,10.47
2022-10-03T21:02:43.465Z,10.55
2022-10-03T21:05:19.215Z,10.51
2022-10-03T21:07:52.474Z,10.49
2022-10-03T21:10:29.182Z,10.42
2022-10-03T21:13:01.354Z,10.43
2022-10-03T21:15:38.809Z,10.41
2022-10-03T21:18:07.482Z,10.41
2022-10-03T21:20:39.607Z,10.38
2022-10-03T21:23:16.907Z,10.37
2022-10-03T21:25:46.718Z,10.35
2022-10-03T21:28:24.643Z,10.34
2022-10-03T21:31:09.201Z,10.32
2022-10-03T21:33:45.676Z,10.31
2022-10-03T21:36:18.406Z,10.30
2022-10-03T21:38:50.819Z,10.30
2022-10-03T21:41:38.354Z,10.33
2022-10-03T21:44:16.553Z,10.34
2022-10-03T21:46:53.724Z,10.38
2022-10-03T21:49:41.825Z,10.42
2022-10-03T21:52:28.002Z,10.44
2022-10-03T21:55:08.904Z,10.46
2022-10-03T21:57:51.662Z,10.47
2022-10-03T22:00:21.503Z,10.45
2022-10-03T22:02:59.708Z,10.45
2022-10-03T22:05:43.581Z,10.44
2022-10-03T22:08:20.914Z,10.45
2022-10-03T22:11:01.660Z,10.45
2022-10-03T22:13:35.334Z,10.45
2022-10-03T22:16:09.277Z,10.44
2022-10-03T22:19:05.397Z,10.40
2022-10-03T22:21:41.725Z,10.39
2022-10-03T22:24:17.749Z,10.37
2022-10-03T22:26:51.711Z,10.34
2022-10-03T22:29:32.550Z,10.28
2022-10-03T22:32:06.968Z,10.26
2022-10-03T22:34:41.711Z,10.24
2022-10-03T22:37:10.165Z,10.23
2022-10-03T22:39:38.355Z,10.22
2022-10-03T22:42:08.366Z,10.20
2022-10-03T22:44:39.167Z,10.18
2022-10-03T22:47:13.621Z,10.18
2022-10-03T22:49:45.162Z,10.14
2022-10-03T22:52:19.610Z,10.13
2022-10-03T22:54:50.629Z,10.11
2022-10-03T22:57:19.383Z,9.95
2022-10-03T22:59:52.338Z,10.10
2022-10-03T23:02:28.058Z,10.07
2022-10-03T23:04:58.568Z,10.06
2022-10-03T23:07:53.380Z,10.03
2022-10-03T23:10:39.207Z,10.02
2022-10-03T23:13:13.101Z,9.96
2022-10-03T23:15:45.292Z,9.83
2022-10-03T23:18:46.076Z,9.76
2022-10-03T23:21:14.270Z,9.76
2022-10-03T23:23:54.773Z,9.67
2022-10-03T23:26:52.755Z,9.69
2022-10-03T23:29:21.731Z,9.72
2022-10-03T23:31:54.496Z,9.73
2022-10-03T23:34:43.937Z,9.73
2022-10-03T23:37:40.608Z,9.77
2022-10-03T23:40:40.856Z,9.77
2022-10-03T23:43:31.091Z,9.67
2022-10-03T23:46:01.993Z,9.62
2022-10-03T23:48:40.141Z,9.58
2022-10-03T23:51:13.442Z,9.60
2022-10-03T23:53:44.745Z,9.56
2022-10-03T23:56:28.629Z,9.54
2022-10-03T23:58:58.557Z,9.55
